createdAt,value
2018-07-01T00:06:40.898Z,-59
2018-07-01T00:16:40.910Z,-58
2018-07-01T00:26:40.870Z,-59
2018-07-01T00:36:40.951Z,-58
2018-07-01T00:46:40.930Z,-59
2018-07-01T00:56:40.897Z,-59
2018-07-01T01:06:40.910Z,-59
2018-07-01T01:16:40.894Z,-59
2018-07-01T01:26:40.905Z,-58
2018-07-01T01:36:41.016Z,-58
2018-07-01T01:46:40.930Z,-58
2018-07-01T01:56:40.905Z,-58
2018-07-01T02:06:40.906Z,-58
2018-07-01T02:16:40.910Z,-58
2018-07-01T02:26:40.860Z,-58
2018-07-01T02:36:40.892Z,-58
2018-07-01T02:46:40.931Z,-58
2018-07-01T02:56:41.009Z,-58
2018-07-01T03:06:40.940Z,-57
2018-07-01T03:16:40.959Z,-58
2018-07-01T03:26:40.908Z,-58
2018-07-01T03:36:40.879Z,-58
2018-07-01T03:46:40.930Z,-58
2018-07-01T03:56:40.946Z,-57
2018-07-01T04:06:40.862Z,-58
2018-07-01T04:16:40.942Z,-59
2018-07-01T04:26:40.877Z,-59
2018-07-01T04:36:40.883Z,-58
2018-07-01T04:46:40.941Z,-59
2018-07-01T04:56:40.893Z,-58
2018-07-01T05:06:40.906Z,-58
2018-07-01T05:16:40.979Z,-58
2018-07-01T05:26:40.955Z,-57
2018-07-01T05:36:40.929Z,-59
2018-07-01T05:46:40.929Z,-59
2018-07-01T05:56:40.947Z,-58
2018-07-01T06:06:40.953Z,-59
2018-07-01T06:16:40.993Z,-60
2018-07-01T06:26:41.023Z,-60
2018-07-01T06:36:40.918Z,-60
2018-07-01T06:46:40.959Z,-60
2018-07-01T06:56:40.975Z,-60
2018-07-01T07:06:40.929Z,-61
2018-07-01T07:16:41.251Z,-61
2018-07-01T07:26:41.535Z,-62
2018-07-01T07:36:41.162Z,-60
2018-07-01T07:46:40.891Z,-60
2018-07-01T07:56:41.356Z,-61
2018-07-01T08:06:41.024Z,-61
2018-07-01T08:16:42.233Z,-59
2018-07-01T08:26:48.935Z,-61
2018-07-01T08:36:47.730Z,-61
2018-07-01T08:46:47.220Z,-61
2018-07-01T08:57:07.011Z,-61
2018-07-01T09:06:47.003Z,-61
2018-07-01T09:16:44.505Z,-60
2018-07-01T09:27:12.944Z,-55
2018-07-01T09:36:48.516Z,-57
2018-07-01T09:46:43.876Z,-59
2018-07-01T09:56:45.764Z,-59
2018-07-01T10:06:45.556Z,-58
2018-07-01T10:17:07.212Z,-59
2018-07-01T10:26:41.159Z,-66
2018-07-01T10:36:41.244Z,-61
2018-07-01T10:46:41.218Z,-57
2018-07-01T10:56:41.097Z,-55
2018-07-01T11:06:41.074Z,-58
2018-07-01T11:16:41.067Z,-60
2018-07-01T11:26:41.289Z,-60
2018-07-01T11:36:41.061Z,-59
2018-07-01T11:46:41.322Z,-59
2018-07-01T11:56:41.140Z,-59
2018-07-01T12:06:42.205Z,-58
2018-07-01T12:16:41.064Z,-58
2018-07-01T12:26:41.782Z,-59
2018-07-01T12:36:41.034Z,-58
2018-07-01T12:46:41.009Z,-57
2018-07-01T12:56:41.054Z,-58
2018-07-01T13:06:41.026Z,-59
2018-07-01T13:16:41.172Z,-58
2018-07-01T13:26:41.048Z,-59
2018-07-01T13:36:41.035Z,-58
2018-07-01T13:46:41.036Z,-59
2018-07-01T13:56:41.393Z,-59
2018-07-01T14:06:41.089Z,-57
2018-07-01T14:16:41.093Z,-59
2018-07-01T14:26:41.103Z,-58
2018-07-01T14:36:41.106Z,-57
2018-07-01T14:46:41.078Z,-57
2018-07-01T14:56:41.085Z,-57
2018-07-01T15:06:41.092Z,-58
2018-07-01T15:16:41.090Z,-58
2018-07-01T15:26:41.110Z,-58
2018-07-01T15:36:41.444Z,-58
2018-07-01T15:46:41.074Z,-58
2018-07-01T15:56:41.092Z,-58
2018-07-01T16:06:41.134Z,-59
2018-07-01T16:16:41.096Z,-58
2018-07-01T16:26:41.191Z,-59
2018-07-01T16:36:41.296Z,-58
2018-07-01T16:46:41.173Z,-58
2018-07-01T16:56:41.196Z,-59
2018-07-01T17:06:41.514Z,-58
2018-07-01T17:16:41.275Z,-59
2018-07-01T17:26:41.145Z,-59
2018-07-01T17:36:41.239Z,-58
2018-07-01T17:46:41.284Z,-62
2018-07-01T17:56:41.455Z,-59
2018-07-01T18:06:41.136Z,-62
2018-07-01T18:16:41.573Z,-60
2018-07-01T18:26:41.257Z,-62
2018-07-01T18:36:41.193Z,-57
2018-07-01T18:46:42.836Z,-65
2018-07-01T18:56:41.296Z,-64
2018-07-01T19:06:41.165Z,-66
2018-07-01T19:16:41.182Z,-67
2018-07-01T19:26:41.203Z,-64
2018-07-01T19:36:42.124Z,-62
2018-07-01T19:46:41.316Z,-59
2018-07-01T19:56:41.200Z,-62
2018-07-01T20:06:41.286Z,-68
2018-07-01T20:16:41.199Z,-66
2018-07-01T20:26:41.205Z,-64
2018-07-01T20:36:41.373Z,-66
2018-07-01T20:46:41.230Z,-67
2018-07-01T20:56:41.556Z,-58
2018-07-01T21:06:41.169Z,-57
2018-07-01T21:16:41.137Z,-59
2018-07-01T21:26:41.141Z,-62
2018-07-01T21:36:41.731Z,-62
2018-07-01T21:46:41.371Z,-63
2018-07-01T21:56:41.301Z,-61
2018-07-01T22:06:41.335Z,-61
2018-07-01T22:16:41.231Z,-63
2018-07-01T22:26:41.197Z,-63
2018-07-01T22:37:37.951Z,-59
2018-07-01T22:46:52.025Z,-62
2018-07-01T22:56:41.249Z,-62
2018-07-01T23:06:41.212Z,-62
2018-07-01T23:16:41.216Z,-61
2018-07-01T23:26:41.195Z,-62
2018-07-01T23:36:41.213Z,-61
2018-07-01T23:46:41.145Z,-62
2018-07-01T23:56:41.236Z,-63
